Time;durP1;ratioP1;P1;durP2;ratioP2;P2;SDS_P1;SDS_P2;PMS_P1;PMS_P2;Temp;Humidity;BMP_temperature;BMP_pressure;BME280_temperature;BME280_humidity;BME280_pressure;Samples;Min_cycle;Max_cycle;Signal;HPM_P1;HPM_P2
2022/01/08 00:01:20;;;;;;;;;0.00;0.00;;;;;5.62;71.65;100771.13;4996678;28;45374;-75
2022/01/08 00:03:45;;;;;;;;;1.00;1.00;;;;;5.93;71.90;100828.66;4996874;28;45454;-76
2022/01/08 00:06:12;;;;;;;;;0.00;0.00;;;;;5.71;72.01;100798.41;4996901;28;45162;-77
2022/01/08 00:08:38;;;;;;;;;0.00;0.00;;;;;5.78;71.32;100820.38;4997413;28;45503;-77
2022/01/08 00:11:06;;;;;;;;;0.00;0.00;;;;;5.50;71.83;100789.97;4997914;28;45361;-77
2022/01/08 00:13:31;;;;;;;;;0.00;0.00;;;;;5.53;72.35;100813.56;4997336;28;46362;-76
2022/01/08 00:15:57;;;;;;;;;0.00;0.00;;;;;5.57;71.12;100828.47;4997503;28;45290;-77
2022/01/08 00:18:23;;;;;;;;;0.00;0.00;;;;;5.63;71.95;100849.56;4996706;28;45570;-76
2022/01/08 00:20:49;;;;;;;;;0.00;0.00;;;;;5.44;71.97;100850.75;4997949;28;45345;-76
2022/01/08 00:23:15;;;;;;;;;0.75;0.75;;;;;5.62;72.34;100867.81;4997324;28;46615;-77
2022/01/08 00:25:40;;;;;;;;;4.00;4.00;;;;;5.08;72.49;100777.41;4997103;28;45496;-75
2022/01/08 00:28:06;;;;;;;;;0.00;0.00;;;;;5.21;72.57;100803.88;4997503;28;45324;-77
2022/01/08 00:30:31;;;;;;;;;0.00;0.00;;;;;5.30;72.69;100825.06;4997480;28;45529;-77
2022/01/08 00:32:59;;;;;;;;;0.00;0.00;;;;;5.29;72.41;100838.94;4996535;28;46013;-77
2022/01/08 00:35:26;;;;;;;;;0.25;0.00;;;;;5.43;72.55;100869.91;4997272;28;45325;-76
2022/01/08 00:37:51;;;;;;;;;0.00;0.00;;;;;4.94;72.23;100783.06;4997202;28;45327;-76
2022/01/08 00:40:17;;;;;;;;;0.00;0.00;;;;;5.06;72.83;100818.25;4997349;28;45482;-76
2022/01/08 00:42:42;;;;;;;;;0.00;0.00;;;;;5.31;72.64;100868.66;4996915;28;46603;-77
2022/01/08 00:45:08;;;;;;;;;0.00;0.00;;;;;5.36;72.75;100885.31;4997102;28;45265;-77
2022/01/08 00:47:34;;;;;;;;;0.00;0.00;;;;;4.99;72.79;100828.47;4996448;28;45174;-76
2022/01/08 00:50:04;;;;;;;;;0.00;0.00;;;;;5.17;72.96;100881.25;4996864;28;45622;-76
2022/01/08 00:52:30;;;;;;;;;0.00;0.00;;;;;5.13;73.63;100872.47;4997004;28;45257;-76
2022/01/08 00:54:55;;;;;;;;;0.00;0.00;;;;;5.07;73.25;100874.88;4994824;28;45571;-77
2022/01/08 00:57:21;;;;;;;;;0.00;0.00;;;;;5.18;73.61;100901.31;4996855;28;45650;-77
2022/01/08 00:59:46;;;;;;;;;0.50;0.50;;;;;5.25;73.70;100932.00;4997010;28;45443;-76
2022/01/08 01:02:12;;;;;;;;;0.25;0.25;;;;;4.94;74.02;100877.94;4996545;28;47518;-77
2022/01/08 01:04:38;;;;;;;;;0.75;0.00;;;;;4.96;73.44;100891.03;4996220;28;45460;-76
2022/01/08 01:07:03;;;;;;;;;0.00;0.00;;;;;4.99;74.04;100901.56;4996740;28;45471;-76
2022/01/08 01:09:29;;;;;;;;;2.00;0.00;;;;;5.10;74.32;100923.66;4997793;28;45292;-77
2022/01/08 01:11:57;;;;;;;;;2.00;0.75;;;;;5.12;74.40;100935.09;4999270;28;46124;-76
2022/01/08 01:14:24;;;;;;;;;0.00;0.00;;;;;5.19;74.33;100934.41;5000606;28;45405;-76
2022/01/08 01:16:50;;;;;;;;;1.75;0.00;;;;;5.01;74.50;100905.97;5000110;28;45307;-77
2022/01/08 01:19:16;;;;;;;;;4.00;0.75;;;;;5.03;74.86;100914.78;5000208;28;45416;-76
2022/01/08 01:21:41;;;;;;;;;0.00;0.00;;;;;4.97;75.21;100892.81;4999976;28;46489;-77
2022/01/08 01:24:14;;;;;;;;;1.75;1.00;;;;;5.02;75.31;100906.88;4999772;28;45253;-77
2022/01/08 01:26:48;;;;;;;;;2.25;2.25;;;;;5.12;74.99;100924.63;4999738;28;45493;-77
2022/01/08 01:43:20;;;;;;;;;1.00;1.00;;;;;5.15;74.35;100937.78;4999277;28;45252;-76
2022/01/08 01:48:26;;;;;;;;;2.00;1.00;;;;;5.11;73.77;100920.22;4999636;28;45281;-76
2022/01/08 01:50:52;;;;;;;;;0.00;0.00;;;;;5.07;73.84;100920.97;4999643;28;45238;-77
2022/01/08 01:53:17;;;;;;;;;0.25;0.25;;;;;4.91;73.95;100892.59;4998829;28;46210;-77
2022/01/08 01:55:45;;;;;;;;;1.00;1.00;;;;;4.96;73.59;100910.19;4999363;28;45437;-77
2022/01/08 01:58:10;;;;;;;;;1.50;1.50;;;;;4.70;73.50;100870.19;4999438;28;45510;-77
2022/01/08 02:00:36;;;;;;;;;0.00;0.00;;;;;5.14;73.17;100944.72;4999920;28;45467;-76
2022/01/08 02:03:02;;;;;;;;;1.25;1.25;;;;;4.82;73.26;100890.56;4999322;28;45384;-76
2022/01/08 02:05:27;;;;;;;;;1.50;1.00;;;;;5.12;73.55;100945.53;4999186;28;45587;-75
2022/01/08 02:07:57;;;;;;;;;3.50;1.00;;;;;5.09;73.52;100924.50;4998983;28;45257;-76
2022/01/08 02:10:23;;;;;;;;;1.25;1.25;;;;;4.96;73.15;100897.13;4999535;28;45427;-77
2022/01/08 02:12:49;;;;;;;;;1.00;1.00;;;;;4.22;73.38;100776.41;4999122;28;46296;-77
2022/01/08 02:15:14;;;;;;;;;1.50;1.50;;;;;5.12;73.46;100925.53;4998994;28;45427;-76
2022/01/08 02:17:40;;;;;;;;;1.50;1.50;;;;;5.00;73.65;100919.88;4999187;28;45360;-77
2022/01/08 02:20:06;;;;;;;;;1.00;1.00;;;;;4.88;74.03;100898.59;4999329;28;45310;-73
2022/01/08 02:22:32;;;;;;;;;2.00;2.00;;;;;5.00;74.06;100926.81;4997971;28;46183;-76
2022/01/08 02:24:57;;;;;;;;;1.00;1.00;;;;;5.11;73.41;100949.81;4999008;28;45503;-77
2022/01/08 02:27:23;;;;;;;;;1.25;1.00;;;;;5.07;73.48;100941.88;4998965;28;45234;-76
2022/01/08 02:29:50;;;;;;;;;3.00;1.25;;;;;5.07;73.40;100955.81;4998793;28;45469;-77
2022/01/08 02:32:24;;;;;;;;;2.00;0.75;;;;;5.01;73.92;100933.81;4998200;28;46265;-75
2022/01/08 02:34:50;;;;;;;;;3.25;1.00;;;;;5.05;74.00;100936.59;4997584;28;45220;-76
2022/01/08 02:37:18;;;;;;;;;1.00;1.00;;;;;5.11;73.72;100949.81;4998953;28;45302;-76
2022/01/08 02:39:48;;;;;;;;;5.00;1.50;;;;;5.07;73.35;100936.63;4998678;28;45444;-75
2022/01/08 02:42:18;;;;;;;;;0.75;0.75;;;;;5.12;73.68;100955.97;4998164;28;45168;-77
2022/01/08 02:44:46;;;;;;;;;1.50;1.50;;;;;5.08;73.24;100949.75;4998699;28;45476;-76
2022/01/08 02:47:20;;;;;;;;;4.25;1.75;;;;;4.98;72.99;100926.78;4998186;28;45424;-76
2022/01/08 02:49:48;;;;;;;;;2.25;1.00;;;;;4.75;72.65;100883.38;4998593;28;45300;-75
2022/01/08 02:52:13;;;;;;;;;0.50;0.50;;;;;5.06;72.41;100938.38;4998634;28;45602;-77
2022/01/08 02:54:39;;;;;;;;;4.00;2.00;;;;;5.10;72.75;100936.72;4998183;28;45484;-75
2022/01/08 02:57:05;;;;;;;;;0.00;0.00;;;;;4.89;72.30;100900.38;4998292;28;45261;-77
2022/01/08 02:59:32;;;;;;;;;1.00;1.00;;;;;5.05;72.53;100939.22;4998423;28;45376;-76
2022/01/08 03:01:58;;;;;;;;;1.25;1.00;;;;;5.11;72.39;100962.00;4998214;28;45719;-77
2022/01/08 03:04:23;;;;;;;;;0.50;0.50;;;;;5.07;72.58;100961.03;4997962;28;45295;-76
2022/01/08 03:06:49;;;;;;;;;1.50;1.00;;;;;4.91;72.26;100911.75;4998211;28;45344;-76
2022/01/08 03:09:14;;;;;;;;;0.50;0.50;;;;;5.15;72.70;100956.94;4998583;28;45546;-77
2022/01/08 03:11:41;;;;;;;;;1.00;1.00;;;;;5.16;72.72;100965.66;4998004;28;46294;-76
2022/01/08 03:14:06;;;;;;;;;1.75;1.50;;;;;5.08;72.95;100947.13;4997019;28;45530;-76
2022/01/08 03:16:32;;;;;;;;;0.00;0.00;;;;;5.20;72.63;100958.81;4998306;28;45417;-76
2022/01/08 03:18:58;;;;;;;;;0.00;0.00;;;;;5.19;72.89;100951.81;4997982;28;45497;-76
2022/01/08 03:21:24;;;;;;;;;0.75;0.75;;;;;5.11;72.61;100931.56;4997769;28;45421;-77
2022/01/08 03:23:59;;;;;;;;;0.00;0.00;;;;;5.26;72.63;100945.97;4998230;28;45247;-76
2022/01/08 03:26:27;;;;;;;;;1.00;1.00;;;;;5.22;72.48;100934.53;4980479;28;45479;-76
2022/01/08 03:28:54;;;;;;;;;1.00;1.00;;;;;5.08;72.57;100912.31;4997671;28;45433;-76
2022/01/08 03:31:21;;;;;;;;;1.50;1.00;;;;;5.19;72.41;100925.69;4997699;28;45448;-77
2022/01/08 03:33:48;;;;;;;;;1.00;1.00;;;;;5.13;72.14;100921.19;4997801;28;45348;-76
2022/01/08 03:36:15;;;;;;;;;1.00;0.00;;;;;5.00;72.37;100903.34;4998017;28;45316;-76
2022/01/08 03:38:41;;;;;;;;;0.00;0.00;;;;;5.14;72.33;100941.22;4997797;28;45422;-77
2022/01/08 03:41:06;;;;;;;;;0.25;0.25;;;;;5.05;72.50;100926.16;4996961;28;46613;-76
2022/01/08 03:43:32;;;;;;;;;1.00;1.00;;;;;5.08;72.30;100935.81;4997808;28;45273;-77
2022/01/08 03:46:00;;;;;;;;;0.00;0.00;;;;;5.08;72.37;100944.53;4998147;28;45476;-77
2022/01/08 03:50:51;;;;;;;;;0.00;0.00;;;;;4.92;72.67;100923.97;4997473;28;45305;-77
2022/01/08 03:53:17;;;;;;;;;1.00;0.00;;;;;5.00;72.50;100950.31;4997592;28;45446;-76
2022/01/08 03:55:42;;;;;;;;;0.00;0.00;;;;;5.01;72.49;100955.59;4996965;28;45928;-76
2022/01/08 03:58:07;;;;;;;;;1.00;1.00;;;;;4.86;73.15;100927.28;4997950;28;45278;-77
2022/01/08 04:00:33;;;;;;;;;1.00;1.00;;;;;4.72;73.17;100897.19;4997681;28;45333;-77
2022/01/08 04:02:58;;;;;;;;;1.00;1.00;;;;;4.91;73.56;100935.25;4997354;28;45234;-75
2022/01/08 04:05:24;;;;;;;;;1.00;1.00;;;;;4.84;73.58;100933.28;4963856;28;45393;-77
2022/01/08 04:07:49;;;;;;;;;0.00;0.00;;;;;4.86;73.46;100935.09;4997856;28;45279;-76
2022/01/08 04:10:14;;;;;;;;;2.00;0.00;;;;;4.91;74.01;100936.97;4997038;28;45601;-75
2022/01/08 04:12:44;;;;;;;;;0.50;0.50;;;;;4.76;73.84;100917.38;4997318;28;45162;-76
2022/01/08 04:17:48;;;;;;;;;1.00;1.00;;;;;4.84;74.30;100957.66;4997126;28;45344;-75
2022/01/08 04:20:15;;;;;;;;;4.00;1.00;;;;;4.87;74.26;100951.66;4997378;28;46288;-76
2022/01/08 04:22:40;;;;;;;;;0.00;0.00;;;;;4.85;74.27;100945.50;4979900;28;45402;-77
2022/01/08 04:25:06;;;;;;;;;0.75;0.75;;;;;4.81;74.40;100928.81;4997016;28;45284;-77
2022/01/08 04:27:32;;;;;;;;;1.00;1.00;;;;;4.88;73.86;100931.66;4997670;28;45353;-76
2022/01/08 04:29:57;;;;;;;;;1.00;1.00;;;;;4.91;74.15;100934.34;4997007;28;45323;-76
2022/01/08 04:32:23;;;;;;;;;0.00;0.00;;;;;4.98;74.12;100938.94;4996986;28;45232;-76
2022/01/08 04:34:48;;;;;;;;;0.75;0.75;;;;;5.00;73.36;100942.50;4997515;28;45365;-77
2022/01/08 04:37:14;;;;;;;;;1.00;1.00;;;;;4.94;73.95;100926.66;4996743;28;45307;-76
2022/01/08 04:39:39;;;;;;;;;1.00;1.00;;;;;5.08;73.92;100935.81;4996890;28;47457;-76
2022/01/08 04:42:05;;;;;;;;;0.00;0.00;;;;;5.11;73.56;100931.56;4996546;28;45465;-74
2022/01/08 04:44:30;;;;;;;;;4.00;1.00;;;;;5.15;74.22;100932.56;4998367;28;45323;-77
2022/01/08 04:46:56;;;;;;;;;0.75;0.75;;;;;5.18;73.78;100935.25;5000705;28;45377;-76
2022/01/08 04:49:21;;;;;;;;;0.75;0.75;;;;;5.23;74.19;100936.31;4982810;28;47043;-76
2022/01/08 04:51:47;;;;;;;;;1.00;1.00;;;;;5.20;74.20;100930.06;4999876;28;45352;-76
2022/01/08 04:54:12;;;;;;;;;2.00;0.50;;;;;5.10;74.29;100928.91;5000204;28;45519;-75
2022/01/08 04:56:38;;;;;;;;;2.00;0.00;;;;;5.14;74.38;100957.78;5000424;28;45501;-73
2022/01/08 04:59:03;;;;;;;;;2.00;2.00;;;;;5.09;74.50;100950.63;4999842;28;46100;-76
2022/01/08 05:01:29;;;;;;;;;1.50;1.50;;;;;5.16;74.74;100978.72;5000482;28;45492;-75
2022/01/08 05:03:54;;;;;;;;;0.25;0.25;;;;;4.95;74.95;100944.97;5000398;28;45305;-75
2022/01/08 05:06:20;;;;;;;;;4.00;1.75;;;;;5.09;75.07;100972.41;5000309;28;45210;-74
2022/01/08 05:08:45;;;;;;;;;0.50;0.50;;;;;5.09;75.25;100979.34;4999475;28;45535;-76
2022/01/08 05:11:10;;;;;;;;;1.00;0.00;;;;;5.07;75.35;100974.06;5000211;28;45202;-77
2022/01/08 05:13:37;;;;;;;;;0.00;0.00;;;;;5.10;75.31;100963.72;4999981;28;45283;-73
2022/01/08 05:16:03;;;;;;;;;0.25;0.00;;;;;5.12;75.13;100958.59;5000390;28;45325;-77
2022/01/08 05:18:31;;;;;;;;;1.00;0.00;;;;;5.14;75.09;100944.72;4999993;28;45405;-76
2022/01/08 05:21:08;;;;;;;;;0.00;0.00;;;;;5.29;75.10;100951.25;4999959;28;45286;-76
2022/01/08 05:23:34;;;;;;;;;0.50;0.50;;;;;5.35;75.15;100951.47;4999538;28;45458;-77
2022/01/08 05:25:59;;;;;;;;;1.00;1.00;;;;;5.46;75.18;100960.53;5000252;28;45196;-76
2022/01/08 05:28:25;;;;;;;;;1.50;0.50;;;;;5.38;74.80;100941.09;4999817;28;46510;-75
2022/01/08 05:30:50;;;;;;;;;1.00;1.00;;;;;5.44;74.26;100946.53;4999720;28;45302;-77
2022/01/08 05:33:15;;;;;;;;;2.00;2.00;;;;;5.60;74.26;100964.47;4999395;28;45674;-77
2022/01/08 05:35:41;;;;;;;;;0.00;0.00;;;;;5.57;74.61;100951.28;4999747;28;45469;-76
2022/01/08 05:38:06;;;;;;;;;0.00;0.00;;;;;5.65;74.89;100955.03;4999507;28;47215;-77
2022/01/08 05:40:32;;;;;;;;;0.00;0.00;;;;;5.69;74.31;100943.84;4999571;28;45341;-76
2022/01/08 05:42:57;;;;;;;;;1.00;1.00;;;;;5.73;74.41;100929.13;4999699;28;45348;-77
2022/01/08 05:45:23;;;;;;;;;6.25;2.00;;;;;5.70;74.52;100922.09;5000034;28;45358;-77
2022/01/08 05:47:48;;;;;;;;;2.00;1.00;;;;;5.71;74.01;100921.25;4999205;28;46433;-76
2022/01/08 05:50:14;;;;;;;;;0.75;0.75;;;;;5.69;74.23;100912.50;4999002;28;45420;-77
2022/01/08 05:52:39;;;;;;;;;3.75;2.00;;;;;5.86;74.49;100935.59;4999336;28;45317;-77
2022/01/08 05:55:05;;;;;;;;;0.50;0.50;;;;;5.74;73.88;100904.75;4998616;28;45458;-75
2022/01/08 05:57:31;;;;;;;;;0.00;0.00;;;;;5.88;74.25;100926.09;4998703;28;46690;-77
2022/01/08 05:59:56;;;;;;;;;1.00;1.00;;;;;5.89;74.89;100917.41;4999049;28;45360;-75
2022/01/08 06:02:21;;;;;;;;;2.00;0.75;;;;;5.84;74.47;100913.75;4999045;28;45306;-77
2022/01/08 06:04:47;;;;;;;;;1.00;0.00;;;;;5.94;74.59;100926.28;4999059;28;45360;-77
2022/01/08 06:07:12;;;;;;;;;2.00;2.00;;;;;5.91;73.94;100916.63;4998709;28;46050;-76
2022/01/08 06:09:38;;;;;;;;;0.25;0.25;;;;;5.96;74.72;100928.13;4999162;28;45367;-77
2022/01/08 06:12:04;;;;;;;;;1.00;1.00;;;;;5.98;74.52;100918.59;4999587;28;45230;-77
2022/01/08 06:14:29;;;;;;;;;1.00;0.00;;;;;6.01;73.99;100920.41;4999467;28;45206;-77
2022/01/08 06:16:54;;;;;;;;;1.75;1.75;;;;;6.14;74.31;100937.31;4998944;28;46607;-76
2022/01/08 06:19:20;;;;;;;;;0.00;0.00;;;;;6.11;73.76;100930.28;4999227;28;45367;-77
2022/01/08 06:21:45;;;;;;;;;1.00;1.00;;;;;6.21;74.29;100936.66;4998618;28;45397;-77
2022/01/08 06:24:11;;;;;;;;;1.00;1.00;;;;;6.14;73.48;100914.69;4999133;28;45272;-76
2022/01/08 06:26:36;;;;;;;;;0.00;0.00;;;;;6.12;73.90;100900.66;4998647;28;46211;-77
2022/01/08 06:29:03;;;;;;;;;1.00;1.00;;;;;6.11;73.64;100890.16;4998702;28;45479;-77
2022/01/08 06:31:28;;;;;;;;;1.50;1.00;;;;;6.07;73.73;100888.31;4998959;28;45329;-77
2022/01/08 06:33:55;;;;;;;;;1.00;1.00;;;;;6.06;74.07;100895.28;4999326;28;45427;-76
2022/01/08 06:36:23;;;;;;;;;1.25;1.00;;;;;6.05;74.82;100897.84;4998640;28;46500;-76
2022/01/08 06:38:52;;;;;;;;;1.00;0.00;;;;;5.98;74.67;100896.78;4998916;28;45250;-76
2022/01/08 06:41:18;;;;;;;;;2.00;0.50;;;;;5.98;74.35;100895.06;4998512;28;45307;-74
2022/01/08 06:43:44;;;;;;;;;1.50;0.25;;;;;6.09;74.64;100912.78;4998723;28;45386;-76
2022/01/08 06:46:10;;;;;;;;;0.00;0.00;;;;;6.01;74.24;100894.25;4998560;28;46521;-77
2022/01/08 06:48:36;;;;;;;;;1.75;1.00;;;;;6.06;74.32;100897.91;4998832;28;45318;-77
2022/01/08 06:51:02;;;;;;;;;1.00;1.00;;;;;6.06;74.87;100908.38;4997895;28;45435;-77
2022/01/08 06:53:28;;;;;;;;;2.00;2.00;;;;;6.05;75.05;100903.06;4998974;28;45313;-78
2022/01/08 06:55:53;;;;;;;;;2.75;1.25;;;;;6.04;75.36;100904.78;4998032;28;45486;-77
2022/01/08 06:58:20;;;;;;;;;1.25;0.00;;;;;6.04;75.03;100889.09;4998517;28;45345;-77
2022/01/08 07:00:46;;;;;;;;;1.25;1.00;;;;;6.00;75.02;100875.06;4998592;28;45269;-78
2022/01/08 07:03:11;;;;;;;;;4.00;1.00;;;;;6.05;75.23;100896.13;4998823;28;45407;-78
2022/01/08 07:05:38;;;;;;;;;4.00;2.50;;;;;6.03;74.62;100896.91;4996951;28;45405;-76
2022/01/08 07:08:04;;;;;;;;;2.00;2.00;;;;;6.04;75.37;100896.06;4998293;28;45187;-77
2022/01/08 07:10:29;;;;;;;;;0.75;0.75;;;;;5.91;74.73;100882.66;4998063;28;45262;-77
2022/01/08 07:12:55;;;;;;;;;0.00;0.00;;;;;5.95;75.40;100892.34;4998819;28;45322;-77
2022/01/08 07:15:20;;;;;;;;;1.00;1.00;;;;;5.53;75.63;100815.28;4998169;28;46585;-77
2022/01/08 07:17:46;;;;;;;;;2.00;1.00;;;;;5.76;75.29;100853.41;4997916;28;45357;-77
2022/01/08 07:20:12;;;;;;;;;1.75;1.00;;;;;5.88;76.01;100871.19;4998405;28;45454;-76
2022/01/08 07:22:38;;;;;;;;;2.00;1.00;;;;;5.84;76.16;100858.88;4997943;28;45238;-76
2022/01/08 07:25:05;;;;;;;;;1.00;1.00;;;;;5.93;76.47;100877.47;4997933;28;45261;-76
2022/01/08 07:27:32;;;;;;;;;7.00;2.00;;;;;5.72;76.34;100828.03;4998045;28;45234;-77
2022/01/08 07:30:02;;;;;;;;;2.00;1.75;;;;;5.84;76.88;100851.03;4998128;28;45234;-77
2022/01/08 07:32:27;;;;;;;;;1.75;1.75;;;;;5.71;77.35;100827.16;4997970;28;46428;-75
2022/01/08 07:34:53;;;;;;;;;4.25;2.75;;;;;5.64;77.63;100817.38;4997765;28;46685;-75
2022/01/08 07:37:19;;;;;;;;;3.00;3.00;;;;;5.78;77.21;100837.81;4997130;28;45485;-77
2022/01/08 07:39:44;;;;;;;;;2.00;1.00;;;;;5.83;77.13;100834.44;4998100;28;45239;-76
2022/01/08 07:42:09;;;;;;;;;5.25;3.00;;;;;5.97;77.54;100859.31;4980328;28;45191;-76
2022/01/08 07:44:35;;;;;;;;;2.50;1.75;;;;;6.02;78.30;100858.53;4997655;28;45262;-77
2022/01/08 07:47:00;;;;;;;;;4.50;2.00;;;;;5.95;79.24;100836.53;4997129;28;45555;-74
2022/01/08 07:49:26;;;;;;;;;3.00;2.00;;;;;6.03;79.18;100845.50;4997419;28;45230;-73
2022/01/08 07:51:52;;;;;;;;;1.00;1.00;;;;;6.14;78.77;100857.16;4996921;28;45412;-77
2022/01/08 07:54:17;;;;;;;;;4.75;2.00;;;;;6.19;78.64;100854.66;4997246;28;45402;-76
2022/01/08 07:56:43;;;;;;;;;2.50;2.50;;;;;6.24;78.33;100850.44;4997327;28;45752;-77
2022/01/08 07:59:08;;;;;;;;;3.00;2.00;;;;;6.15;78.55;100824.94;4997350;28;45166;-78
2022/01/08 08:01:34;;;;;;;;;9.00;3.00;;;;;6.30;77.47;100840.13;4997726;28;45488;-74
2022/01/08 08:03:59;;;;;;;;;3.50;3.00;;;;;6.24;78.73;100829.50;4997241;28;45955;-77
2022/01/08 08:06:25;;;;;;;;;5.00;2.00;;;;;6.18;79.11;100817.16;4997033;28;45325;-78
2022/01/08 08:08:50;;;;;;;;;5.50;3.00;;;;;6.17;78.65;100810.16;4997511;28;45438;-75
2022/01/08 08:11:16;;;;;;;;;5.75;3.50;;;;;6.26;78.00;100815.63;4997424;28;45320;-77
2022/01/08 08:13:41;;;;;;;;;2.50;2.50;;;;;6.26;78.87;100807.78;4997370;28;45621;-78
2022/01/08 08:16:07;;;;;;;;;2.00;2.00;;;;;6.34;77.20;100817.56;4979555;28;45527;-77
2022/01/08 08:18:33;;;;;;;;;3.00;1.25;;;;;6.27;78.09;100793.84;4996876;28;45343;-77
2022/01/08 08:20:58;;;;;;;;;3.75;3.75;;;;;6.45;78.53;100810.84;4999975;28;45502;-78
2022/01/08 08:23:25;;;;;;;;;4.50;4.00;;;;;6.46;78.62;100804.78;5000206;28;45952;-77
2022/01/08 08:25:50;;;;;;;;;5.75;2.75;;;;;6.43;77.79;100786.38;4978510;28;45547;-78
2022/01/08 08:28:15;;;;;;;;;6.00;4.50;;;;;6.48;78.08;100803.97;4994438;28;45596;-78
2022/01/08 08:30:41;;;;;;;;;6.50;6.50;;;;;6.36;78.49;100792.31;4998401;28;45427;-75
2022/01/08 08:33:06;;;;;;;;;3.00;1.00;;;;;6.39;77.61;100795.88;4997545;28;45274;-75
2022/01/08 08:35:33;;;;;;;;;6.00;3.50;;;;;6.35;79.13;100777.47;4998475;28;45233;-74
2022/01/08 08:37:59;;;;;;;;;3.50;0.75;;;;;6.39;78.82;100792.38;4998742;28;45307;-74
2022/01/08 08:40:25;;;;;;;;;6.50;5.75;;;;;6.43;78.48;100786.38;4997702;28;45515;-76
2022/01/08 08:42:50;;;;;;;;;6.00;5.00;;;;;6.38;79.66;100764.44;4997392;28;45665;-76
2022/01/08 08:45:16;;;;;;;;;2.00;0.25;;;;;6.41;79.53;100772.38;4998163;28;45423;-77
2022/01/08 08:47:42;;;;;;;;;6.50;5.00;;;;;6.38;79.60;100759.22;4998667;28;45411;-75
2022/01/08 08:50:10;;;;;;;;;5.75;3.50;;;;;6.45;79.25;100769.88;4998842;28;45520;-75
2022/01/08 08:52:35;;;;;;;;;2.75;2.75;;;;;6.49;79.65;100770.81;4998365;28;46660;-73
2022/01/08 08:55:01;;;;;;;;;6.00;6.00;;;;;6.29;80.11;100720.63;4998756;28;45416;-78
2022/01/08 08:57:26;;;;;;;;;5.75;5.00;;;;;6.42;80.41;100730.56;4998823;28;45369;-77
2022/01/08 08:59:52;;;;;;;;;6.00;6.00;;;;;6.56;80.47;100744.84;4998637;28;45625;-78
2022/01/08 09:02:17;;;;;;;;;3.50;3.00;;;;;6.56;80.85;100755.31;4998655;28;45444;-77
2022/01/08 09:04:43;;;;;;;;;8.50;4.50;;;;;6.61;81.46;100754.53;4998529;28;45415;-72
2022/01/08 09:07:10;;;;;;;;;6.00;6.00;;;;;6.62;81.10;100754.59;4998397;28;45486;-77
2022/01/08 09:09:35;;;;;;;;;6.00;5.25;;;;;6.61;82.02;100750.19;4998645;28;45428;-77
2022/01/08 09:12:02;;;;;;;;;5.00;5.00;;;;;6.66;81.14;100742.44;4998148;28;46506;-78
2022/01/08 09:14:27;;;;;;;;;9.25;6.50;;;;;6.72;81.04;100733.00;4998855;28;45337;-75
2022/01/08 09:16:59;;;;;;;;;9.50;6.75;;;;;6.80;81.69;100720.09;4998524;28;45253;-75
2022/01/08 09:19:25;;;;;;;;;6.75;6.25;;;;;6.91;80.93;100720.31;4998251;28;45404;-73
2022/01/08 09:21:51;;;;;;;;;7.75;6.75;;;;;6.88;80.91;100713.25;4998153;28;46456;-76
2022/01/08 09:24:21;;;;;;;;;4.00;4.00;;;;;7.01;81.41;100714.44;4997895;28;45568;-73
2022/01/08 09:26:47;;;;;;;;;8.25;6.25;;;;;7.10;80.31;100710.28;4998269;28;45431;-74
2022/01/08 09:29:12;;;;;;;;;5.25;5.25;;;;;7.19;80.53;100706.97;4998546;28;45492;-74
2022/01/08 09:31:38;;;;;;;;;8.25;7.00;;;;;7.21;80.73;100704.38;4997979;28;45472;-76
2022/01/08 09:34:04;;;;;;;;;5.25;5.25;;;;;7.34;80.53;100714.22;4998008;28;45314;-76
2022/01/08 09:36:31;;;;;;;;;14.50;7.00;;;;;7.32;80.14;100690.63;4999302;28;45423;-76
2022/01/08 09:38:56;;;;;;;;;8.25;6.25;;;;;7.42;80.51;100710.03;5002644;28;45372;-75
2022/01/08 09:41:22;;;;;;;;;7.00;7.00;;;;;7.41;79.80;100700.41;5004251;28;45503;-75
2022/01/08 09:43:50;;;;;;;;;8.00;6.75;;;;;7.43;79.93;100696.94;4984880;28;45265;-75
2022/01/08 09:46:16;;;;;;;;;6.25;6.25;;;;;7.40;79.81;100675.94;4999723;28;45312;-71
2022/01/08 09:48:43;;;;;;;;;7.75;6.00;;;;;7.56;80.51;100702.44;5001134;28;45480;-75
2022/01/08 09:51:09;;;;;;;;;11.00;6.50;;;;;7.58;79.82;100693.75;5000719;28;45683;-73
2022/01/08 09:53:36;;;;;;;;;8.25;7.00;;;;;7.58;80.07;100675.38;4983046;28;45491;-74
2022/01/08 09:56:04;;;;;;;;;11.75;9.25;;;;;7.57;80.25;100663.16;5000509;28;45295;-77
2022/01/08 09:58:30;;;;;;;;;6.50;5.00;;;;;7.71;79.48;100673.88;5001746;28;45512;-75
2022/01/08 10:00:56;;;;;;;;;9.75;7.50;;;;;7.72;80.26;100659.91;4999007;28;45441;-75
2022/01/08 10:03:26;;;;;;;;;6.50;5.00;;;;;7.72;80.79;100665.13;4998683;28;45322;-76
2022/01/08 10:05:55;;;;;;;;;7.00;7.00;;;;;7.77;80.51;100660.00;4981817;28;45532;-77
2022/01/08 10:08:26;;;;;;;;;7.00;7.00;;;;;7.84;80.51;100654.88;4999208;28;45491;-73
2022/01/08 10:10:56;;;;;;;;;11.00;7.25;;;;;7.90;80.43;100641.84;4997127;28;46367;-75
2022/01/08 10:13:29;;;;;;;;;7.00;5.00;;;;;7.82;80.08;100605.91;4998378;28;45438;-75
2022/01/08 10:18:40;;;;;;;;;11.25;7.25;;;;;7.51;80.32;100542.44;4998336;28;45458;-76
2022/01/08 10:21:24;;;;;;;;;5.25;5.25;;;;;8.08;80.73;100637.78;4997892;28;45700;-76
2022/01/08 10:23:57;;;;;;;;;8.00;7.50;;;;;8.11;80.93;100622.97;4999040;28;45450;-78
2022/01/08 10:26:31;;;;;;;;;13.00;7.00;;;;;8.13;80.79;100626.50;5001217;28;45412;-77
2022/01/08 10:28:58;;;;;;;;;10.00;7.25;;;;;8.01;80.69;100600.09;5000244;28;45339;-77
2022/01/08 10:31:25;;;;;;;;;6.75;4.00;;;;;8.14;80.83;100609.91;4998211;28;46233;-75
2022/01/08 10:34:05;;;;;;;;;7.00;7.00;;;;;8.18;81.19;100602.94;4998606;28;45187;-77
2022/01/08 10:36:33;;;;;;;;;8.00;7.00;;;;;8.00;81.65;100572.06;4998762;28;45429;-75
2022/01/08 10:39:01;;;;;;;;;9.00;7.75;;;;;8.07;80.78;100576.53;4998291;28;45552;-76
2022/01/08 10:41:28;;;;;;;;;11.75;9.50;;;;;8.17;81.69;100586.31;4996601;28;46239;-72
2022/01/08 10:44:27;;;;;;;;;6.00;6.00;;;;;8.16;81.56;100587.19;4995294;28;45672;-77
2022/01/08 10:47:27;;;;;;;;;10.00;7.50;;;;;8.21;82.19;100590.75;4955750;28;45593;-74
2022/01/08 10:50:05;;;;;;;;;9.75;8.75;;;;;8.25;82.31;100575.94;4952513;28;45466;-74
2022/01/08 10:52:42;;;;;;;;;8.00;6.75;;;;;8.28;82.52;100566.38;4956875;28;46435;-74
2022/01/08 10:55:08;;;;;;;;;9.25;7.00;;;;;8.28;82.95;100565.47;4955337;28;45495;-75
2022/01/08 10:57:45;;;;;;;;;7.25;6.00;;;;;8.27;82.20;100547.97;4956506;28;45294;-75
2022/01/08 11:00:13;;;;;;;;;10.00;7.00;;;;;8.29;82.96;100541.91;4956551;28;45509;-75
2022/01/08 11:02:41;;;;;;;;;5.75;3.00;;;;;8.37;82.26;100530.63;4956307;28;47346;-74
2022/01/08 11:05:08;;;;;;;;;3.00;2.50;;;;;8.30;81.93;100527.03;4956284;28;45282;-77
2022/01/08 11:07:39;;;;;;;;;7.00;6.00;;;;;8.40;82.72;100521.06;4922231;28;45444;-78
2022/01/08 11:10:16;;;;;;;;;7.00;6.00;;;;;8.43;82.71;100522.84;4937378;28;45543;-75
2022/01/08 11:12:44;;;;;;;;;9.25;5.75;;;;;8.35;82.41;100500.88;4939137;28;46165;-73
2022/01/08 11:15:35;;;;;;;;;5.75;5.50;;;;;8.40;82.48;100499.19;4956340;28;45517;-76
2022/01/08 11:18:06;;;;;;;;;11.00;10.25;;;;;8.37;83.00;100480.75;4956295;28;45348;-74
2022/01/08 11:20:33;;;;;;;;;12.75;3.50;;;;;8.37;82.69;100467.63;4956543;28;45335;-78
2022/01/08 11:23:02;;;;;;;;;8.50;6.25;;;;;8.52;82.30;100491.47;4956226;28;46395;-76
2022/01/08 11:25:36;;;;;;;;;8.00;5.00;;;;;8.51;82.29;100476.56;4953101;28;45460;-78
2022/01/08 11:28:11;;;;;;;;;7.50;6.00;;;;;8.57;81.97;100476.66;4954048;28;45420;-76
2022/01/08 11:30:38;;;;;;;;;5.00;2.25;;;;;8.50;81.82;100451.19;4954850;28;45578;-79
2022/01/08 11:33:12;;;;;;;;;5.75;5.75;;;;;8.59;82.29;100466.16;4953614;28;46337;-78
2022/01/08 11:35:38;;;;;;;;;6.75;5.00;;;;;8.43;82.16;100421.34;4955611;28;45421;-79
2022/01/08 11:38:09;;;;;;;;;13.75;6.25;;;;;8.38;81.75;100409.06;4949968;28;45488;-79
2022/01/08 11:40:37;;;;;;;;;4.50;4.50;;;;;8.59;81.96;100425.03;4954203;28;45578;-79
2022/01/08 11:43:05;;;;;;;;;6.00;6.00;;;;;8.29;81.83;100370.44;4955071;28;45414;-79
2022/01/08 11:45:34;;;;;;;;;9.50;7.00;;;;;8.68;82.04;100419.00;4955555;28;45252;-78
2022/01/08 11:48:03;;;;;;;;;6.25;6.25;;;;;8.41;81.68;100367.97;4941931;28;45460;-80
2022/01/08 11:50:30;;;;;;;;;6.50;4.50;;;;;8.65;82.11;100404.06;4996851;28;45279;-76
2022/01/08 11:53:14;;;;;;;;;7.50;3.00;;;;;8.66;82.03;100397.09;4994451;28;45447;-78
2022/01/08 11:55:40;;;;;;;;;5.25;4.00;;;;;8.55;81.89;100368.97;4993900;28;45470;-78
2022/01/08 11:58:26;;;;;;;;;9.75;6.00;;;;;8.66;82.16;100376.97;4992300;28;45729;-79